Time;durP1;ratioP1;P1;durP2;ratioP2;P2;SDS_P1;SDS_P2;PMS_P1;PMS_P2;Temp;Humidity;BMP_temperature;BMP_pressure;BME280_temperature;BME280_humidity;BME280_pressure;Samples;Min_cycle;Max_cycle;Signal;HPM_P1;HPM_P2
2021/05/30 00:01:07;;;;;;;17.53;10.40;;;13.40;65.50;;;;;;4959998;28;20891;-78
2021/05/30 00:03:32;;;;;;;15.17;10.77;;;13.40;66.00;;;;;;4942202;29;20457;-77
2021/05/30 00:05:59;;;;;;;14.47;10.23;;;13.30;66.30;;;;;;4942622;29;20261;-78
2021/05/30 00:08:25;;;;;;;14.80;10.77;;;13.20;66.60;;;;;;4908047;29;20292;-80
2021/05/30 00:10:51;;;;;;;14.90;10.30;;;13.20;67.10;;;;;;4939700;29;20453;-79
2021/05/30 00:13:18;;;;;;;13.60;10.43;;;13.10;67.50;;;;;;4940288;29;20238;-80
2021/05/30 00:15:45;;;;;;;14.90;10.20;;;13.10;67.90;;;;;;4939161;29;20489;-80
2021/05/30 00:18:11;;;;;;;15.57;10.70;;;13.00;68.00;;;;;;4938765;29;20469;-80
2021/05/30 00:20:38;;;;;;;14.80;10.37;;;13.00;68.20;;;;;;4940264;29;20429;-81
2021/05/30 00:23:04;;;;;;;15.63;11.13;;;13.00;68.60;;;;;;4941484;29;20413;-81
2021/05/30 00:25:29;;;;;;;17.93;11.53;;;12.90;68.70;;;;;;4939728;29;20831;-80
2021/05/30 00:27:56;;;;;;;16.33;11.50;;;12.90;69.00;;;;;;4944440;29;20612;-80
2021/05/30 00:30:22;;;;;;;17.77;11.27;;;12.90;69.10;;;;;;4925932;29;20202;-80
2021/05/30 00:32:48;;;;;;;16.00;9.33;;;12.80;69.20;;;;;;4955570;23;20453;-73
2021/05/30 00:35:13;;;;;;;17.27;10.80;;;12.80;69.50;;;;;;4950523;29;20231;-73
2021/05/30 00:37:39;;;;;;;15.60;11.50;;;12.80;69.50;;;;;;4952148;29;20421;-72
2021/05/30 00:40:06;;;;;;;17.17;11.23;;;12.80;69.80;;;;;;4951885;29;20176;-75
2021/05/30 00:42:31;;;;;;;15.00;10.33;;;12.70;70.00;;;;;;4952962;28;20722;-73
2021/05/30 00:44:57;;;;;;;13.43;10.43;;;12.70;70.10;;;;;;4953165;29;20532;-73
2021/05/30 00:47:23;;;;;;;15.20;11.17;;;12.70;70.20;;;;;;4952197;29;20299;-74
2021/05/30 00:49:48;;;;;;;15.60;10.30;;;12.60;70.30;;;;;;4952751;29;20243;-72
2021/05/30 00:52:14;;;;;;;16.17;10.77;;;12.60;70.50;;;;;;4934845;29;20198;-75
2021/05/30 00:54:40;;;;;;;17.03;11.10;;;12.60;70.80;;;;;;4952861;29;20567;-73
2021/05/30 00:57:07;;;;;;;14.00;10.53;;;12.60;71.00;;;;;;4952497;29;20735;-73
2021/05/30 00:59:33;;;;;;;19.20;11.60;;;12.50;71.00;;;;;;4946331;29;20180;-71
2021/05/30 01:01:59;;;;;;;14.53;10.10;;;12.50;71.20;;;;;;4957738;29;20428;-72
2021/05/30 01:04:24;;;;;;;16.30;12.13;;;12.50;71.40;;;;;;4952840;28;20440;-72
2021/05/30 01:06:55;;;;;;;21.07;12.30;;;12.50;71.50;;;;;;4952661;29;20582;-71
2021/05/30 01:09:20;;;;;;;18.57;11.47;;;12.40;71.50;;;;;;4950929;29;20240;-73
2021/05/30 01:11:47;;;;;;;18.13;12.37;;;12.40;71.60;;;;;;4952544;29;20487;-72
2021/05/30 01:14:13;;;;;;;18.40;12.80;;;12.40;71.70;;;;;;4935088;29;20536;-73
2021/05/30 01:16:40;;;;;;;18.80;11.13;;;12.40;71.90;;;;;;4952011;29;20814;-73
2021/05/30 01:19:09;;;;;;;17.67;12.03;;;12.40;72.10;;;;;;4952102;29;20417;-73
2021/05/30 01:21:35;;;;;;;13.97;10.50;;;12.30;72.30;;;;;;4934984;29;20464;-73
2021/05/30 01:24:01;;;;;;;13.93;12.10;;;12.30;72.20;;;;;;4952240;28;20440;-73
2021/05/30 01:26:27;;;;;;;17.20;11.60;;;12.30;72.30;;;;;;4951903;29;20185;-72
2021/05/30 01:28:52;;;;;;;15.67;11.50;;;12.30;72.40;;;;;;4934377;29;20231;-72
2021/05/30 01:31:19;;;;;;;15.30;10.23;;;12.30;72.60;;;;;;4934290;29;20180;-72
2021/05/30 01:33:45;;;;;;;16.70;10.93;;;12.30;72.60;;;;;;4950987;29;20200;-73
2021/05/30 01:36:11;;;;;;;14.50;11.00;;;12.30;72.70;;;;;;4951843;29;20969;-73
2021/05/30 01:38:38;;;;;;;22.57;12.43;;;12.20;72.60;;;;;;4952107;29;20173;-73
2021/05/30 01:41:04;;;;;;;21.83;13.57;;;12.20;72.70;;;;;;4934597;29;20901;-73
2021/05/30 01:43:30;;;;;;;16.93;12.40;;;12.20;72.80;;;;;;4951783;29;20433;-73
2021/05/30 01:45:56;;;;;;;21.83;11.70;;;12.20;72.80;;;;;;4934426;29;20555;-73
2021/05/30 01:48:22;;;;;;;17.30;11.30;;;12.20;72.80;;;;;;4952169;29;20264;-73
2021/05/30 01:50:48;;;;;;;19.50;13.00;;;12.20;72.80;;;;;;4952386;29;20488;-73
2021/05/30 01:53:15;;;;;;;17.80;12.83;;;12.20;72.90;;;;;;4951410;29;20437;-73
2021/05/30 01:58:22;;;;;;;19.80;13.03;;;12.20;73.10;;;;;;4951877;29;20432;-73
2021/05/30 02:00:49;;;;;;;17.07;11.83;;;12.10;73.30;;;;;;4951743;29;20419;-71
2021/05/30 02:03:16;;;;;;;23.60;14.03;;;12.10;73.50;;;;;;4934382;29;20197;-75
2021/05/30 02:05:51;;;;;;;16.03;12.30;;;12.10;73.40;;;;;;4934391;29;20535;-74
2021/05/30 02:08:16;;;;;;;21.60;13.07;;;12.10;73.60;;;;;;4953491;29;20416;-73
2021/05/30 02:10:42;;;;;;;19.80;13.00;;;12.00;73.70;;;;;;4938048;29;20426;-74
2021/05/30 02:13:08;;;;;;;22.60;15.37;;;12.00;74.00;;;;;;4955864;28;20208;-74
2021/05/30 02:15:35;;;;;;;19.47;13.93;;;12.00;74.10;;;;;;4955575;29;20710;-71
2021/05/30 02:18:00;;;;;;;24.30;13.80;;;12.00;74.40;;;;;;4955840;29;20409;-73
2021/05/30 02:20:44;;;;;;;18.30;12.30;;;11.90;74.40;;;;;;4938136;29;20431;-72
2021/05/30 02:23:12;;;;;;;18.07;12.23;;;11.90;74.60;;;;;;4954403;28;20193;-72
2021/05/30 02:25:39;;;;;;;19.27;13.13;;;11.90;74.50;;;;;;4946292;29;20461;-72
2021/05/30 02:28:04;;;;;;;19.67;12.77;;;11.90;74.60;;;;;;4964404;29;20499;-72
2021/05/30 02:30:30;;;;;;;16.17;11.70;;;11.80;74.40;;;;;;4968780;29;20744;-73
2021/05/30 02:32:56;;;;;;;18.43;13.30;;;11.80;74.60;;;;;;4959753;29;20449;-75
2021/05/30 02:35:22;;;;;;;17.03;12.60;;;11.80;74.60;;;;;;4954774;29;20421;-72
2021/05/30 02:37:48;;;;;;;20.10;12.57;;;11.80;74.70;;;;;;4938342;29;20180;-72
2021/05/30 02:40:15;;;;;;;14.57;11.53;;;11.70;74.80;;;;;;4956116;29;20409;-72
2021/05/30 02:42:40;;;;;;;18.87;11.17;;;11.70;75.00;;;;;;4941569;28;20592;-72
2021/05/30 02:45:07;;;;;;;19.00;11.50;;;11.60;75.10;;;;;;4969398;29;20427;-74
2021/05/30 02:47:32;;;;;;;18.93;12.53;;;11.60;75.50;;;;;;4972088;29;20191;-71
2021/05/30 02:49:59;;;;;;;17.70;12.40;;;11.50;75.80;;;;;;4969633;29;20445;-73
2021/05/30 02:52:25;;;;;;;16.10;11.67;;;11.50;76.10;;;;;;4955255;29;20161;-73
2021/05/30 02:54:51;;;;;;;16.10;11.67;;;11.50;76.10;;;;;;4953452;28;20444;-72
2021/05/30 02:57:16;;;;;;;18.07;12.17;;;11.40;76.10;;;;;;4954549;29;20165;-73
2021/05/30 02:59:42;;;;;;;23.10;12.13;;;11.50;76.20;;;;;;4955234;28;20180;-73
2021/05/30 03:02:08;;;;;;;17.47;12.47;;;11.40;76.30;;;;;;4937782;29;20673;-72
2021/05/30 03:04:33;;;;;;;15.23;11.63;;;11.40;76.40;;;;;;4954880;29;20532;-72
2021/05/30 03:07:00;;;;;;;13.00;10.30;;;11.40;76.40;;;;;;4937615;29;20298;-71
2021/05/30 03:09:26;;;;;;;16.60;11.97;;;11.30;76.30;;;;;;4954592;29;20165;-73
2021/05/30 03:11:51;;;;;;;20.97;11.70;;;11.20;76.70;;;;;;4954387;29;20495;-73
2021/05/30 03:14:17;;;;;;;19.07;10.90;;;11.10;77.40;;;;;;4936863;29;20448;-72
2021/05/30 03:16:43;;;;;;;18.40;11.20;;;11.10;77.70;;;;;;4954251;29;20627;-73
2021/05/30 03:19:08;;;;;;;16.33;10.73;;;11.10;77.80;;;;;;4954215;29;20254;-71
2021/05/30 03:21:34;;;;;;;17.33;11.83;;;11.10;77.60;;;;;;4953162;28;20169;-72
2021/05/30 03:24:00;;;;;;;17.00;11.43;;;11.10;77.50;;;;;;4920220;29;20290;-74
2021/05/30 03:26:26;;;;;;;17.53;11.80;;;11.10;77.40;;;;;;4953797;29;20193;-72
2021/05/30 03:28:52;;;;;;;19.33;12.07;;;11.10;77.40;;;;;;4936811;29;20408;-72
2021/05/30 03:31:18;;;;;;;15.70;10.87;;;11.10;77.40;;;;;;4954029;29;20424;-72
2021/05/30 03:33:44;;;;;;;16.37;11.30;;;11.10;77.40;;;;;;4936248;29;20452;-72
2021/05/30 03:36:14;;;;;;;17.80;11.50;;;11.10;77.30;;;;;;4953504;29;20173;-71
2021/05/30 03:38:40;;;;;;;18.40;12.63;;;11.10;77.30;;;;;;4954204;29;20316;-72
2021/05/30 03:41:08;;;;;;;16.30;11.80;;;11.10;77.20;;;;;;4953686;29;20413;-73
2021/05/30 03:43:34;;;;;;;17.60;10.50;;;11.10;77.00;;;;;;4951991;29;20193;-73
2021/05/30 03:46:01;;;;;;;17.37;11.80;;;11.10;77.10;;;;;;4936128;29;20460;-70
2021/05/30 03:48:27;;;;;;;18.23;12.37;;;11.10;77.00;;;;;;4954132;29;20440;-72
2021/05/30 03:50:53;;;;;;;21.27;12.00;;;11.10;77.00;;;;;;4954149;29;20805;-72
2021/05/30 03:53:21;;;;;;;17.33;10.60;;;11.10;76.90;;;;;;4954033;28;20193;-73
2021/05/30 03:55:47;;;;;;;17.80;12.10;;;11.10;76.90;;;;;;4943527;29;20499;-73
2021/05/30 03:58:13;;;;;;;15.50;10.60;;;11.10;76.70;;;;;;4960767;29;20515;-73
2021/05/30 04:00:40;;;;;;;18.40;12.07;;;11.10;76.70;;;;;;4971721;29;20409;-71
2021/05/30 04:03:06;;;;;;;19.20;13.07;;;11.10;76.70;;;;;;4940778;29;21146;-73
2021/05/30 04:05:32;;;;;;;17.30;12.47;;;11.10;76.60;;;;;;4952700;29;21137;-73
2021/05/30 04:07:58;;;;;;;21.97;14.73;;;11.10;76.40;;;;;;4953244;29;20409;-72
2021/05/30 04:10:24;;;;;;;21.30;13.60;;;11.10;76.30;;;;;;4953214;29;20413;-73
2021/05/30 04:12:50;;;;;;;20.27;10.30;;;11.20;76.40;;;;;;4953071;29;20181;-73
2021/05/30 04:15:16;;;;;;;18.07;11.93;;;11.10;76.40;;;;;;4952479;29;20443;-73
2021/05/30 04:17:43;;;;;;;18.90;12.40;;;11.20;76.50;;;;;;4953144;29;20540;-72
2021/05/30 04:20:20;;;;;;;15.47;11.57;;;11.10;76.30;;;;;;4953146;29;20450;-73
2021/05/30 04:22:46;;;;;;;19.70;11.40;;;11.10;76.40;;;;;;4950176;29;20565;-72
2021/05/30 04:25:13;;;;;;;17.23;10.60;;;11.20;76.40;;;;;;4952021;29;20818;-72
2021/05/30 04:27:39;;;;;;;17.83;11.70;;;11.20;76.40;;;;;;4936225;29;20930;-72
2021/05/30 04:30:07;;;;;;;16.03;11.30;;;11.20;76.20;;;;;;4953398;29;20437;-72
2021/05/30 04:32:33;;;;;;;20.57;11.67;;;11.30;76.20;;;;;;4952384;28;20546;-73
2021/05/30 04:35:00;;;;;;;16.30;12.17;;;11.30;76.30;;;;;;4935604;29;20421;-73
2021/05/30 04:37:26;;;;;;;18.30;11.70;;;11.30;76.30;;;;;;4952302;29;20429;-73
2021/05/30 04:39:51;;;;;;;19.57;12.70;;;11.40;76.10;;;;;;4952854;29;20416;-71
2021/05/30 04:42:17;;;;;;;18.40;11.37;;;11.40;76.10;;;;;;4952809;29;20185;-73
2021/05/30 04:44:44;;;;;;;19.53;11.30;;;11.40;75.90;;;;;;4935558;29;20201;-73
2021/05/30 04:47:10;;;;;;;17.33;12.63;;;11.40;75.90;;;;;;4952136;29;20223;-72
2021/05/30 04:49:36;;;;;;;16.37;11.90;;;11.50;75.90;;;;;;4952618;29;20405;-72
2021/05/30 04:52:02;;;;;;;20.40;12.37;;;11.50;75.40;;;;;;4952496;29;20729;-73
2021/05/30 04:54:27;;;;;;;19.80;12.30;;;11.60;75.40;;;;;;4934895;29;20288;-73
2021/05/30 04:56:53;;;;;;;17.10;11.37;;;11.60;75.10;;;;;;4951306;28;20499;-73
2021/05/30 04:59:19;;;;;;;18.67;11.43;;;11.70;75.00;;;;;;4935680;29;20169;-72
2021/05/30 05:01:45;;;;;;;18.80;11.20;;;11.70;74.50;;;;;;4935589;29;20260;-73
2021/05/30 05:04:10;;;;;;;19.07;11.33;;;11.80;74.50;;;;;;4935043;29;20610;-72
2021/05/30 05:06:36;;;;;;;17.10;11.60;;;11.80;73.90;;;;;;4951659;28;20204;-73
2021/05/30 05:09:02;;;;;;;17.17;10.60;;;11.90;73.60;;;;;;4952676;29;20183;-73
2021/05/30 05:11:28;;;;;;;15.40;10.50;;;11.90;72.90;;;;;;4951997;29;20169;-73
2021/05/30 05:13:54;;;;;;;13.70;10.40;;;12.00;72.50;;;;;;4952187;28;20193;-73
2021/05/30 05:16:20;;;;;;;18.13;10.47;;;12.10;72.00;;;;;;4952852;29;20176;-73
2021/05/30 05:18:45;;;;;;;18.10;11.17;;;12.10;71.70;;;;;;4958197;29;20409;-73
2021/05/30 05:21:11;;;;;;;17.77;10.03;;;12.20;71.40;;;;;;4970011;29;20188;-73
2021/05/30 05:23:37;;;;;;;14.30;10.07;;;12.20;71.00;;;;;;4952600;28;20753;-73
2021/05/30 05:26:04;;;;;;;12.10;9.40;;;12.30;70.60;;;;;;4935305;29;20197;-73
2021/05/30 05:28:31;;;;;;;16.17;9.97;;;12.30;70.50;;;;;;4952365;29;20169;-72
2021/05/30 05:30:57;;;;;;;13.60;9.20;;;12.40;69.70;;;;;;4952382;29;20401;-72
2021/05/30 05:33:23;;;;;;;13.10;9.00;;;12.40;69.30;;;;;;4952416;29;20459;-71
2021/05/30 05:35:49;;;;;;;14.97;8.77;;;12.40;68.80;;;;;;4951179;28;20431;-72
2021/05/30 05:38:15;;;;;;;14.27;9.17;;;12.50;69.00;;;;;;4970273;28;20499;-72
2021/05/30 05:40:41;;;;;;;14.03;9.50;;;12.60;68.60;;;;;;4969549;28;20173;-72
2021/05/30 05:43:07;;;;;;;12.63;9.03;;;12.60;67.70;;;;;;4952724;29;21050;-72
2021/05/30 05:45:34;;;;;;;13.93;8.57;;;12.70;67.20;;;;;;4954729;28;20536;-70
2021/05/30 05:48:00;;;;;;;10.60;7.90;;;12.70;66.60;;;;;;4956134;29;20432;-72
2021/05/30 05:50:27;;;;;;;16.80;10.30;;;12.90;66.70;;;;;;4955796;29;20830;-74
2021/05/30 05:52:54;;;;;;;9.43;7.67;;;13.30;66.80;;;;;;4955869;29;21011;-72
2021/05/30 05:55:21;;;;;;;12.47;8.10;;;14.90;63.40;;;;;;4939080;29;20401;-75
2021/05/30 05:57:51;;;;;;;10.20;7.27;;;17.20;57.30;;;;;;4956433;29;20413;-74
2021/05/30 06:00:20;;;;;;;9.17;6.13;;;19.30;52.40;;;;;;4957072;29;20501;-74
2021/05/30 06:02:49;;;;;;;8.83;6.73;;;20.90;48.20;;;;;;4955991;28;20532;-73
2021/05/30 06:05:17;;;;;;;11.20;6.57;;;22.00;44.80;;;;;;4956365;29;20451;-74
2021/05/30 06:07:43;;;;;;;8.67;6.03;;;23.10;42.80;;;;;;4955557;29;20424;-73
2021/05/30 06:10:10;;;;;;;10.40;6.47;;;24.00;41.10;;;;;;4955580;28;20523;-73
2021/05/30 06:12:36;;;;;;;8.73;7.83;;;24.90;38.00;;;;;;4955169;29;20437;-74
2021/05/30 06:15:03;;;;;;;9.50;8.00;;;25.50;37.60;;;;;;4955699;29;20507;-73
2021/05/30 06:17:29;;;;;;;9.10;7.27;;;25.80;36.10;;;;;;4938588;29;20177;-74
2021/05/30 06:19:54;;;;;;;9.03;6.47;;;26.40;35.60;;;;;;4954607;29;20440;-73
2021/05/30 06:22:20;;;;;;;8.93;6.97;;;26.90;34.70;;;;;;4955754;29;20177;-74
2021/05/30 06:24:46;;;;;;;8.97;6.30;;;27.00;33.70;;;;;;4938563;29;20558;-74
2021/05/30 06:27:12;;;;;;;6.10;5.43;;;27.60;33.00;;;;;;4955493;29;20193;-74
2021/05/30 06:29:37;;;;;;;8.40;5.90;;;27.70;32.00;;;;;;4955437;29;20166;-74
2021/05/30 06:32:04;;;;;;;9.17;6.10;;;27.90;31.50;;;;;;4954947;29;20454;-72
2021/05/30 06:34:30;;;;;;;8.47;6.37;;;27.50;31.40;;;;;;4955568;29;20223;-74
2021/05/30 06:36:56;;;;;;;8.47;6.37;;;27.40;31.50;;;;;;4969631;29;20417;-72
2021/05/30 06:39:23;;;;;;;8.57;6.80;;;27.30;31.10;;;;;;4959674;29;20173;-75
2021/05/30 06:41:50;;;;;;;6.33;5.70;;;27.50;32.40;;;;;;4954645;29;20434;-73
2021/05/30 06:44:16;;;;;;;8.03;7.17;;;28.00;31.30;;;;;;4955100;29;20793;-74
2021/05/30 06:46:41;;;;;;;8.43;6.70;;;28.20;31.30;;;;;;4954289;29;20551;-73
2021/05/30 06:49:07;;;;;;;6.93;5.90;;;28.80;29.80;;;;;;4937396;29;20175;-73
2021/05/30 06:51:33;;;;;;;6.93;6.23;;;29.10;29.40;;;;;;4953591;29;20173;-74
2021/05/30 06:54:01;;;;;;;7.60;5.43;;;29.20;29.30;;;;;;4954617;29;20746;-74
2021/05/30 06:56:27;;;;;;;6.27;5.67;;;29.30;29.40;;;;;;4954465;28;20583;-75
2021/05/30 06:58:54;;;;;;;7.50;6.80;;;29.30;29.20;;;;;;4937498;29;20436;-72
2021/05/30 07:01:20;;;;;;;6.63;5.93;;;28.10;29.50;;;;;;4953818;29;20487;-73
2021/05/30 07:03:47;;;;;;;8.07;6.37;;;27.10;31.00;;;;;;4937526;29;20457;-74
2021/05/30 07:06:14;;;;;;;7.83;6.13;;;27.00;31.30;;;;;;4954165;29;20488;-75
2021/05/30 07:08:39;;;;;;;8.30;6.17;;;27.60;30.40;;;;;;4954731;29;20992;-73
2021/05/30 07:11:05;;;;;;;7.97;7.17;;;27.50;30.90;;;;;;4954702;29;20508;-75
2021/05/30 07:13:31;;;;;;;6.57;5.83;;;27.80;30.40;;;;;;4954950;29;20189;-74
2021/05/30 07:15:57;;;;;;;6.03;4.90;;;28.30;29.50;;;;;;4952667;28;20926;-75
2021/05/30 07:18:23;;;;;;;8.90;7.10;;;28.90;28.80;;;;;;4967966;29;20172;-74
2021/05/30 07:20:52;;;;;;;6.80;5.50;;;29.60;28.30;;;;;;4967504;29;20174;-73
2021/05/30 07:23:18;;;;;;;7.00;6.30;;;29.90;27.80;;;;;;4957691;29;20956;-73
2021/05/30 07:25:44;;;;;;;7.50;6.80;;;30.00;27.90;;;;;;4954383;28;20533;-72
2021/05/30 07:28:09;;;;;;;7.20;5.00;;;30.10;27.40;;;;;;4938022;29;20450;-73
2021/05/30 07:30:35;;;;;;;6.13;5.53;;;31.00;26.70;;;;;;4954803;29;20205;-74
2021/05/30 07:33:02;;;;;;;7.30;6.60;;;31.50;26.20;;;;;;4955720;29;20220;-73
2021/05/30 07:35:29;;;;;;;7.90;4.60;;;31.70;25.60;;;;;;4956046;29;20183;-73
2021/05/30 07:37:56;;;;;;;6.03;5.47;;;31.60;25.10;;;;;;4961700;29;20485;-73
2021/05/30 07:40:23;;;;;;;6.50;5.90;;;31.80;24.90;;;;;;4958903;29;20401;-73
2021/05/30 07:42:48;;;;;;;7.53;5.67;;;32.30;25.10;;;;;;4954011;28;20792;-73
2021/05/30 07:45:16;;;;;;;5.23;4.70;;;33.00;24.30;;;;;;4937499;29;20444;-73
2021/05/30 07:47:42;;;;;;;7.70;6.50;;;33.10;24.10;;;;;;4962582;29;20216;-73
2021/05/30 07:50:09;;;;;;;5.60;5.10;;;33.20;23.80;;;;;;4962402;29;20399;-73
2021/05/30 07:52:35;;;;;;;5.87;5.07;;;33.30;23.80;;;;;;4954293;28;20451;-74
2021/05/30 07:55:04;;;;;;;8.03;5.33;;;33.30;23.80;;;;;;4954226;29;20400;-75
2021/05/30 07:57:30;;;;;;;6.70;4.90;;;33.70;23.40;;;;;;4954424;29;20658;-74
2021/05/30 07:59:57;;;;;;;5.47;5.00;;;34.10;22.90;;;;;;4956640;29;20411;-74
2021/05/30 08:02:23;;;;;;;5.10;4.70;;;33.80;22.90;;;;;;4951107;28;20173;-74
2021/05/30 08:04:49;;;;;;;6.37;5.67;;;34.00;23.30;;;;;;4954060;29;20428;-74
2021/05/30 08:07:16;;;;;;;6.30;5.70;;;34.50;22.70;;;;;;4951861;28;20436;-75
2021/05/30 08:09:42;;;;;;;5.23;4.73;;;35.10;22.10;;;;;;4935415;29;20180;-73
2021/05/30 08:12:08;;;;;;;8.30;6.07;;;35.30;21.80;;;;;;4953089;29;20467;-74
2021/05/30 08:14:36;;;;;;;6.80;6.13;;;35.50;21.50;;;;;;4951438;28;20423;-73
2021/05/30 08:17:05;;;;;;;5.47;4.97;;;35.70;21.20;;;;;;4934741;29;20496;-74
2021/05/30 08:19:31;;;;;;;5.50;5.00;;;35.40;21.40;;;;;;4952110;29;20953;-75
2021/05/30 08:21:56;;;;;;;6.07;5.57;;;35.30;21.60;;;;;;4952660;29;20387;-72
2021/05/30 08:24:23;;;;;;;5.83;5.33;;;35.10;21.10;;;;;;4952844;29;20224;-75
2021/05/30 08:26:54;;;;;;;5.43;4.93;;;35.20;21.10;;;;;;4948908;29;20669;-74
2021/05/30 08:29:21;;;;;;;6.15;5.38;;;35.40;21.00;;;;;;4952714;28;20679;-74
2021/05/30 08:31:49;;;;;;;6.18;5.57;;;35.30;21.30;;;;;;4952397;28;20216;-73
2021/05/30 08:34:15;;;;;;;5.43;5.03;;;35.00;21.30;;;;;;4933758;29;20219;-73
2021/05/30 08:36:41;;;;;;;6.43;5.63;;;34.80;21.50;;;;;;4951223;28;20284;-72
2021/05/30 08:39:07;;;;;;;5.80;5.10;;;35.00;21.50;;;;;;4953724;28;20211;-72
2021/05/30 08:41:33;;;;;;;8.18;4.95;;;34.70;21.10;;;;;;4953103;28;20190;-73
2021/05/30 08:43:59;;;;;;;5.95;5.35;;;34.60;21.10;;;;;;4954936;28;20275;-73
2021/05/30 08:46:29;;;;;;;4.60;4.20;;;34.60;21.10;;;;;;4935260;28;20168;-73
2021/05/30 08:48:58;;;;;;;4.80;4.40;;;34.80;20.50;;;;;;4936909;29;20183;-72
2021/05/30 08:51:24;;;;;;;7.18;5.13;;;35.10;20.70;;;;;;4941429;29;20563;-74
2021/05/30 08:53:50;;;;;;;5.07;4.57;;;34.90;20.80;;;;;;4952706;28;20204;-73
2021/05/30 08:56:17;;;;;;;3.97;3.67;;;35.00;20.40;;;;;;4933850;29;20209;-75
2021/05/30 08:58:48;;;;;;;4.68;4.28;;;35.10;20.20;;;;;;4942668;29;20167;-74
2021/05/30 09:01:22;;;;;;;4.97;4.57;;;35.30;20.00;;;;;;4936724;29;20196;-73
2021/05/30 09:04:06;;;;;;;5.00;3.90;;;35.40;19.80;;;;;;4952690;28;20262;-73
2021/05/30 09:06:34;;;;;;;4.40;4.10;;;35.50;20.10;;;;;;4935566;29;20187;-73
2021/05/30 09:09:00;;;;;;;4.28;3.88;;;36.30;19.00;;;;;;4941173;29;20173;-73
2021/05/30 09:11:45;;;;;;;4.15;3.75;;;36.50;18.80;;;;;;4934561;29;20173;-74
2021/05/30 09:14:27;;;;;;;4.53;4.13;;;36.60;18.80;;;;;;4933712;29;20192;-73
2021/05/30 09:17:02;;;;;;;4.47;4.07;;;36.70;18.70;;;;;;4934507;29;20192;-73
2021/05/30 09:19:38;;;;;;;4.53;4.13;;;36.40;19.00;;;;;;4954304;28;20164;-73
2021/05/30 09:22:18;;;;;;;6.93;4.43;;;36.60;18.70;;;;;;4955352;29;20231;-74
2021/05/30 09:24:50;;;;;;;4.97;4.05;;;36.70;18.50;;;;;;4933583;29;20193;-72
2021/05/30 09:27:23;;;;;;;3.55;3.25;;;36.70;18.60;;;;;;4947666;29;20176;-73
2021/05/30 09:30:19;;;;;;;4.18;3.78;;;36.60;18.50;;;;;;4926814;29;20571;-72
2021/05/30 09:32:53;;;;;;;3.70;3.40;;;36.70;18.40;;;;;;4956023;28;20192;-76
2021/05/30 09:35:24;;;;;;;4.63;3.97;;;36.70;17.80;;;;;;4938274;29;20187;-73
2021/05/30 09:38:12;;;;;;;3.55;3.25;;;36.10;18.10;;;;;;4939659;29;20169;-72
2021/05/30 09:40:38;;;;;;;4.20;3.90;;;35.50;18.30;;;;;;4957356;29;20184;-73
2021/05/30 09:43:07;;;;;;;4.43;3.75;;;35.60;18.50;;;;;;4956906;28;20192;-73
2021/05/30 09:45:33;;;;;;;3.03;2.72;;;35.80;17.90;;;;;;4942287;29;20187;-73
2021/05/30 09:48:01;;;;;;;3.47;3.17;;;36.20;17.40;;;;;;4937302;29;20177;-72
2021/05/30 09:50:32;;;;;;;3.65;3.35;;;36.30;17.20;;;;;;4920390;29;20165;-73
2021/05/30 09:53:00;;;;;;;4.30;3.90;;;35.90;17.20;;;;;;4938634;29;20276;-72
2021/05/30 09:55:34;;;;;;;3.35;3.00;;;35.80;18.00;;;;;;4938107;29;20195;-72
2021/05/30 09:58:20;;;;;;;4.22;3.60;;;36.70;17.40;;;;;;4937379;29;20662;-72
2021/05/30 10:00:52;;;;;;;4.07;3.50;;;37.00;17.10;;;;;;4937052;29;20595;-72
2021/05/30 10:03:21;;;;;;;3.83;3.33;;;37.10;17.00;;;;;;4949242;29;20184;-72
2021/05/30 10:05:46;;;;;;;5.15;4.65;;;36.80;17.20;;;;;;4956251;29;20181;-71
2021/05/30 10:08:14;;;;;;;4.18;3.78;;;36.70;17.30;;;;;;4956016;29;20542;-72
2021/05/30 10:10:40;;;;;;;4.38;3.35;;;36.10;17.30;;;;;;4937179;29;20606;-73
2021/05/30 10:13:06;;;;;;;3.97;3.08;;;36.10;17.70;;;;;;4922934;29;20201;-72
2021/05/30 10:15:32;;;;;;;3.60;3.30;;;36.40;17.50;;;;;;4948430;28;20165;-71
2021/05/30 10:18:02;;;;;;;3.83;3.08;;;36.70;17.00;;;;;;4955293;29;20172;-72
2021/05/30 10:20:29;;;;;;;3.78;3.42;;;36.00;17.40;;;;;;4955196;29;20173;-72
2021/05/30 10:22:57;;;;;;;3.92;3.53;;;36.30;17.60;;;;;;4956110;29;20192;-73
2021/05/30 10:25:34;;;;;;;3.45;3.15;;;36.60;17.20;;;;;;4953493;29;20168;-72
2021/05/30 10:28:19;;;;;;;3.72;3.42;;;36.60;16.90;;;;;;4939593;29;20626;-73
2021/05/30 10:30:50;;;;;;;3.67;3.22;;;36.50;17.10;;;;;;4955195;28;20516;-72
2021/05/30 10:33:24;;;;;;;3.75;3.45;;;36.80;16.90;;;;;;4955621;29;20216;-73
2021/05/30 10:35:53;;;;;;;3.10;2.80;;;36.50;16.60;;;;;;4933959;29;20658;-73
2021/05/30 10:38:43;;;;;;;3.53;3.22;;;36.00;16.80;;;;;;4955622;29;20209;-72
2021/05/30 10:41:20;;;;;;;3.60;3.30;;;35.90;17.20;;;;;;4938461;29;20184;-73
2021/05/30 10:43:47;;;;;;;3.53;3.23;;;35.40;17.20;;;;;;4955905;28;20454;-73
2021/05/30 10:46:13;;;;;;;3.20;2.90;;;34.40;17.80;;;;;;4938042;29;20407;-74
2021/05/30 10:48:40;;;;;;;2.60;2.40;;;33.60;18.40;;;;;;4938567;29;20430;-72
2021/05/30 10:51:50;;;;;;;5.10;3.73;;;32.50;19.30;;;;;;4955841;29;20889;-73
2021/05/30 10:54:12;;;;;;;4.83;3.40;;;31.70;20.40;;;;;;4944413;29;20422;-73
2021/05/30 10:56:54;;;;;;;6.03;3.60;;;30.60;21.40;;;;;;4955608;28;21052;-73
2021/05/30 10:59:22;;;;;;;5.17;2.53;;;29.40;21.60;;;;;;4947942;29;20438;-73
2021/05/30 11:01:49;;;;;;;3.10;2.50;;;28.80;22.50;;;;;;4936637;29;20399;-72
2021/05/30 11:06:56;;;;;;;3.20;2.90;;;27.70;23.40;;;;;;4955525;29;20413;-74
2021/05/30 11:09:23;;;;;;;3.93;3.10;;;27.30;24.10;;;;;;4954630;29;20420;-73
2021/05/30 11:12:21;;;;;;;2.80;2.50;;;26.90;24.30;;;;;;4956992;29;20391;-79
2021/05/30 11:15:12;;;;;;;4.43;2.30;;;26.20;25.10;;;;;;4936505;29;20445;-75
2021/05/30 11:17:42;;;;;;;3.00;2.70;;;26.00;25.60;;;;;;4954373;28;20966;-74
2021/05/30 11:20:27;;;;;;;2.97;2.67;;;25.80;26.10;;;;;;4938507;29;20428;-74
2021/05/30 11:23:02;;;;;;;3.90;2.83;;;25.90;26.50;;;;;;4955580;28;20433;-74
2021/05/30 11:25:31;;;;;;;7.50;2.70;;;25.90;26.50;;;;;;4953564;29;21186;-76
2021/05/30 11:28:01;;;;;;;3.10;2.57;;;25.90;26.70;;;;;;4953618;28;20480;-75
2021/05/30 11:30:40;;;;;;;3.13;2.70;;;26.10;26.10;;;;;;4955458;29;20412;-77
2021/05/30 11:33:27;;;;;;;3.00;2.70;;;26.30;25.90;;;;;;4923398;29;20460;-77
2021/05/30 11:35:57;;;;;;;4.20;2.53;;;26.20;26.10;;;;;;4955969;29;20827;-75
2021/05/30 11:38:51;;;;;;;3.33;3.03;;;25.90;26.20;;;;;;4938813;29;20413;-76
2021/05/30 11:41:47;;;;;;;4.03;2.73;;;25.70;26.80;;;;;;4956886;29;20816;-76
2021/05/30 11:44:23;;;;;;;3.90;3.03;;;25.60;27.20;;;;;;4957643;29;20427;-75
2021/05/30 11:46:57;;;;;;;2.50;2.20;;;25.70;26.90;;;;;;4960564;28;20451;-76
2021/05/30 11:49:29;;;;;;;3.83;3.10;;;26.00;26.80;;;;;;4958041;29;20408;-75
2021/05/30 11:51:59;;;;;;;4.20;2.57;;;26.10;26.40;;;;;;4940912;29;20427;-77
2021/05/30 11:54:45;;;;;;;5.67;2.60;;;26.20;26.60;;;;;;4958132;29;20447;-78
2021/05/30 11:57:19;;;;;;;3.90;2.63;;;26.40;26.30;;;;;;4959214;29;20459;-77
2021/05/30 12:00:02;;;;;;;4.93;3.20;;;26.40;25.90;;;;;;4963181;29;20412;-75
2021/05/30 12:02:43;;;;;;;4.07;3.10;;;26.30;25.80;;;;;;4958847;28;20491;-77
2021/05/30 12:05:16;;;;;;;4.00;3.00;;;26.10;26.20;;;;;;5018321;27;20518;-75
2021/05/30 12:07:42;;;;;;;3.77;2.70;;;26.00;26.40;;;;;;5024516;28;20420;-77
2021/05/30 12:10:13;;;;;;;3.00;2.70;;;25.90;26.40;;;;;;5011339;28;20396;-76
2021/05/30 12:12:39;;;;;;;3.33;2.33;;;25.60;26.60;;;;;;5015500;28;20433;-77
2021/05/30 12:15:05;;;;;;;2.90;2.50;;;25.50;27.00;;;;;;5009338;28;20462;-76
2021/05/30 12:17:31;;;;;;;2.93;2.03;;;25.60;27.10;;;;;;5021526;28;20418;-77
2021/05/30 12:19:57;;;;;;;3.20;2.90;;;25.50;26.90;;;;;;5017822;28;20179;-73
2021/05/30 12:22:25;;;;;;;4.00;2.53;;;25.50;27.20;;;;;;5012386;28;20250;-77
2021/05/30 12:24:52;;;;;;;5.07;2.13;;;25.40;26.80;;;;;;5011247;28;20525;-75
2021/05/30 12:27:19;;;;;;;3.23;2.50;;;25.40;27.10;;;;;;5007077;28;20829;-77
2021/05/30 12:29:48;;;;;;;3.33;2.30;;;25.60;26.90;;;;;;5010606;28;20381;-75
2021/05/30 12:32:15;;;;;;;4.00;2.40;;;25.60;26.60;;;;;;5017309;28;20421;-74
2021/05/30 12:34:42;;;;;;;3.10;2.70;;;25.60;26.40;;;;;;5024868;28;20441;-75
2021/05/30 12:37:07;;;;;;;3.30;2.50;;;25.40;26.60;;;;;;5022675;28;20434;-74
2021/05/30 12:39:33;;;;;;;2.90;2.33;;;25.00;26.90;;;;;;5016037;28;20467;-76
2021/05/30 12:42:06;;;;;;;4.70;2.70;;;24.70;27.10;;;;;;5007866;28;20179;-76
2021/05/30 12:44:44;;;;;;;5.70;2.17;;;24.50;27.10;;;;;;5009532;28;20218;-78
2021/05/30 12:47:14;;;;;;;3.37;2.30;;;24.30;27.40;;;;;;5006706;28;20639;-76
2021/05/30 12:49:40;;;;;;;3.00;2.70;;;24.50;28.80;;;;;;5006354;28;20471;-77